Latest Weather Observations for Wudinna Airport

IDS60801

Issued at 1:01 pm CDT Tuesday 24 January 2017 (issued every 30 minutes, with the page automatically refreshed every 10 minutes)

About weather observations | Map of weather stations | Latest weather observations for SA | Other Formats
Station Details ID: 018083 Name: WUDINNA AERO Lat: -33.04 Lon: 135.45 Height: 86.4 m
Data from the previous 72 hours. | See also: Recent months at Wudinna Airport
Date/Time
CDT
Temp
°C
App
Temp
°C
Dew
Point
°C
Rel
Hum
%
Delta-T
°C
Wind Press
QNH
hPa
Press
MSL
hPa
Rain since
9am
mm
Dir  Spd
km/h
Gust
km/h
Spd
kts
Gust
kts
24/01:00pm 23.1 19.8 10.9 46 6.8 SE 19 28 10 15 1018.4 1018.0 0.0
24/12:30pm 22.2 18.4 11.0 49 6.2 SE 22 30 12 16 1018.6 1018.2 0.0
24/12:00pm 22.0 18.7 10.8 49 6.2 SE 19 28 10 15 1018.8 1018.5 0.0
24/11:30am 20.9 17.8 11.5 55 5.2 SSE 19 28 10 15 1019.0 1018.7 0.0
24/11:00am 20.9 17.6 11.0 53 5.5 SE 19 26 10 14 1018.9 1018.6 0.0
24/10:30am 20.1 16.9 11.8 59 4.6 SSE 20 32 11 17 1018.7 1018.4 0.0
24/10:00am 20.0 17.0 12.5 62 4.2 SSE 20 30 11 16 1018.6 1018.2 0.0
24/09:30am 18.8 15.4 12.5 67 3.5 SSE 22 28 12 15 1018.4 1018.0 0.0
24/09:00am 18.1 15.2 13.0 72 2.9 SSE 20 32 11 17 1018.1 1017.7 5.8
24/08:30am 17.3 14.9 13.8 80 2.0 SSE 19 24 10 13 1018.1 1017.7 5.8
24/08:00am 16.1 14.5 13.9 87 1.2 S 15 19 8 10 1017.4 1017.0 5.8
24/07:30am 15.1 14.5 13.6 91 0.8 S 9 11 5 6 1016.9 1016.5 5.8
24/07:00am 14.9 14.3 13.4 91 0.8 S 9 13 5 7 1016.5 1016.1 5.8
24/06:30am 15.3 13.9 13.5 89 1.0 S 13 17 7 9 1016.2 1015.8 5.8
24/06:00am 15.6 13.6 13.8 89 1.0 S 17 20 9 11 1015.7 1015.3 5.8
24/05:30am 15.9 13.5 13.9 88 1.1 S 19 24 10 13 1015.2 1014.8 5.8
24/05:00am 16.4 14.4 14.9 91 0.9 S 19 26 10 14 1014.9 1014.5 5.8
24/04:30am 16.7 14.9 15.4 92 0.8 S 19 22 10 12 1014.6 1014.2 5.8
24/04:00am 17.1 16.2 15.8 92 0.8 S 15 17 8 9 1014.3 1013.9 5.8
24/03:30am 17.2 16.3 15.9 92 0.8 S 15 17 8 9 1014.3 1013.9 5.8
24/03:00am 17.3 16.4 15.8 91 0.9 SSW 15 20 8 11 1014.2 1013.8 5.8
24/02:30am 17.6 16.7 15.9 90 1.0 S 15 19 8 10 1014.1 1013.7 5.8
24/02:00am 18.0 16.8 16.2 89 1.1 S 17 24 9 13 1014.0 1013.6 5.8
24/01:30am 18.3 16.6 16.3 88 1.2 SSW 20 26 11 14 1013.8 1013.4 5.8
24/01:00am 18.4 16.9 16.2 87 1.3 S 19 24 10 13 1013.5 1013.1 5.8
24/12:30am 18.4 16.7 16.2 87 1.3 SSW 20 26 11 14 1013.4 1013.0 5.8
24/12:00am 19.0 17.7 16.8 87 1.3 SSW 19 30 10 16 1013.3 1012.9 5.8
 
Date/Time
CDT
Temp
°C
App
Temp
°C
Dew
Point
°C
Rel
Hum
%
Delta-T
°C
Wind Press
QNH
hPa
Press
MSL
hPa
Rain since
9am
mm
Dir  Spd
km/h
Gust
km/h
Spd
kts
Gust
kts
23/11:30pm 19.1 17.7 17.1 88 1.2 SSW 20 24 11 13 1013.3 1012.9 5.8
23/11:00pm 19.2 17.5 17.3 89 1.2 SSW 22 30 12 16 1013.1 1012.7 5.8
23/10:30pm 19.0 15.9 17.5 91 0.9 SSW 30 39 16 21 1012.7 1012.3 5.8
23/10:00pm 19.5 18.3 18.3 93 0.7 SSW 22 30 12 16 1011.9 1011.5 5.6
23/09:30pm 20.0 18.4 18.3 90 1.1 SSW 24 32 13 17 1011.1 1010.7 5.6
23/09:00pm 20.3 18.1 18.8 91 0.9 SSW 28 35 15 19 1010.3 1009.9 5.6
23/08:30pm 20.7 19.9 19.2 91 1.0 SW 22 30 12 16 1009.7 1009.3 5.6
23/08:00pm 21.4 21.3 20.0 92 0.9 SW 20 28 11 15 1009.0 1008.6 5.6
23/07:30pm 21.6 20.2 20.4 93 0.8 SW 28 37 15 20 1007.9 1007.4 5.6
23/07:00pm 22.4 21.3 21.0 92 0.9 WSW 28 35 15 19 1007.2 1006.7 5.6
23/06:30pm 23.4 22.7 21.8 91 1.1 WSW 28 35 15 19 1006.3 1005.9 5.6
23/06:00pm 24.5 25.8 22.4 88 1.4 WSW 19 28 10 15 1006.0 1005.6 5.6
23/05:30pm 24.9 28.9 23.1 90 1.2 WSW 7 15 4 8 1006.1 1005.7 5.2
23/05:00pm 24.7 27.4 22.8 89 1.3 NW 13 20 7 11 1005.7 1005.3 4.0
23/04:30pm 24.8 27.2 23.0 90 1.2 SW 15 17 8 9 1005.8 1005.4 2.6
23/04:00pm 24.6 26.0 22.8 90 1.2 SW 20 28 11 15 1006.0 1005.6 2.2
23/03:30pm 28.0 29.1 21.3 67 4.5 SSW 17 26 9 14 1006.0 1005.6 0.0
23/03:00pm 29.1 31.1 21.6 64 5.1 S 13 17 7 9 1006.1 1005.7 0.0
23/02:30pm 27.6 29.4 21.2 68 4.3 S 13 22 7 12 1006.0 1005.6 0.0
23/02:00pm 27.0 28.3 20.8 69 4.1 S 15 19 8 10 1006.2 1005.8 0.0
23/01:30pm 25.6 26.9 20.8 75 3.2 S 15 20 8 11 1006.3 1005.9 0.0
23/01:00pm 26.0 25.6 18.9 65 4.6 SSW 19 24 10 13 1006.4 1006.0 0.0
23/12:30pm 27.4 26.1 16.7 52 6.7 S 19 24 10 13 1006.4 1006.0 0.0
23/12:00pm 28.2 26.8 16.5 49 7.3 S 19 26 10 14 1006.2 1005.8 0.0
23/11:30am 28.1 26.3 16.1 48 7.5 SSE 20 30 11 16 1006.0 1005.6 0.0
23/11:00am 26.7 24.5 16.9 55 6.1 S 24 33 13 18 1005.7 1005.3 0.0
23/10:30am 25.0 22.5 17.2 62 4.9 SSW 26 35 14 19 1006.3 1005.9 0.0
23/10:00am 25.4 24.6 17.1 60 5.2 SSE 17 22 9 12 1005.5 1005.1 0.0
23/09:30am 24.4 23.5 18.1 68 4.0 S 20 28 11 15 1005.4 1005.0 0.0
23/09:00am 23.3 21.6 17.1 68 3.8 SSW 22 30 12 16 1005.2 1004.8 0.0
23/08:30am 24.1 23.8 18.3 70 3.7 SSW 17 24 9 13 1004.6 1004.2 0.0
23/08:00am 24.3 25.9 18.2 68 3.9 S 7 13 4 7 1003.7 1003.3 0.0
23/07:30am 25.3 26.6 17.0 60 5.2 ENE 6 13 3 7 1003.5 1003.1 0.0
23/07:00am 24.8 26.3 17.5 64 4.6 ENE 6 7 3 4 1003.2 1002.8 0.0
23/06:30am 27.6 24.9 14.6 45 7.9 N 22 28 12 15 1002.9 1002.5 0.0
23/06:00am 27.6 26.2 14.6 45 7.9 NNE 15 26 8 14 1002.8 1002.4 0.0
23/05:30am 23.5 24.6 15.5 60 4.8 ESE 4 9 2 5 1003.1 1002.7 0.0
23/05:00am 22.7 24.2 15.8 65 4.2 E 2 6 1 3 1003.1 1002.7 0.0
23/04:30am 22.8 23.3 15.1 62 4.6 E 6 7 3 4 1003.0 1002.6 0.0
23/04:00am 23.1 23.9 14.9 60 4.9 E 4 7 2 4 1003.1 1002.7 0.0
23/03:30am 23.0 23.2 14.8 60 4.9 E 7 9 4 5 1003.3 1002.9 0.0
23/03:00am 22.8 22.6 14.6 60 4.9 ESE 9 11 5 6 1003.7 1003.3 0.0
23/02:30am 22.9 21.9 14.5 59 5.0 E 13 15 7 8 1004.2 1003.8 0.0
23/02:00am 22.9 22.6 14.5 59 5.0 E 9 13 5 7 1004.9 1004.5 0.0
23/01:30am 23.0 22.8 14.6 59 5.0 E 9 13 5 7 1005.4 1005.0 0.0
23/01:00am 23.3 23.5 14.6 58 5.2 ESE 7 11 4 6 1005.9 1005.5 0.0
23/12:30am 23.9 23.6 14.3 55 5.7 E 9 13 5 7 1006.3 1005.9 0.0
23/12:00am 24.5 23.8 14.3 53 6.1 E 11 17 6 9 1006.5 1006.1 0.0
 
Date/Time
CDT
Temp
°C
App
Temp
°C
Dew
Point
°C
Rel
Hum
%
Delta-T
°C
Wind Press
QNH
hPa
Press
MSL
hPa
Rain since
9am
mm
Dir  Spd
km/h
Gust
km/h
Spd
kts
Gust
kts
22/11:30pm 25.0 24.7 14.5 52 6.3 ESE 9 13 5 7 1006.8 1006.4 0.0
22/11:00pm 25.3 25.0 14.4 50 6.5 E 9 13 5 7 1007.3 1006.8 0.0
22/10:30pm 25.6 24.8 14.1 49 6.9 E 11 17 6 9 1007.0 1006.6 0.0
22/10:00pm 26.0 25.6 14.1 47 7.1 ESE 9 13 5 7 1007.0 1006.6 0.0
22/09:30pm 26.5 25.2 13.6 45 7.7 SE 13 20 7 11 1007.0 1006.6 0.0
22/09:00pm 27.6 25.1 13.5 41 8.4 SE 19 28 10 15 1006.8 1006.4 0.0
22/08:30pm 28.8 25.3 13.5 39 9.2 SE 24 35 13 19 1006.3 1005.9 0.0
22/08:00pm 29.9 27.1 13.2 36 10.0 SSE 20 26 11 14 1006.2 1005.8 0.0
22/07:30pm 30.4 27.1 12.8 34 10.5 SSE 22 30 12 16 1005.9 1005.5 0.0
22/07:00pm 31.3 27.7 13.1 33 10.9 SSW 24 32 13 17 1006.1 1005.7 0.0
22/06:30pm 32.9 31.5 14.5 33 11.4 SSW 15 20 8 11 1006.0 1005.6 0.0
22/06:00pm 33.4 31.8 14.9 32 11.5 SW 17 20 9 11 1006.3 1005.9 0.0
22/05:30pm 33.1 31.0 14.7 33 11.4 WSW 19 28 10 15 1006.6 1006.2 0.0
22/05:00pm 33.2 31.3 14.3 32 11.6 WNW 17 28 9 15 1007.2 1006.7 0.0
22/04:30pm 34.0 33.0 13.5 29 12.5 NNW 11 20 6 11 1007.2 1006.7 0.0
22/04:00pm 34.2 31.9 13.1 28 12.8 NW 17 24 9 13 1007.3 1006.8 0.0
22/03:30pm 33.8 32.9 12.7 27 12.7 NE 9 13 5 7 1007.5 1007.0 0.0
22/03:00pm 33.7 32.1 12.7 28 12.6 N 13 22 7 12 1007.7 1007.2 0.0
22/02:30pm 34.3 32.6 12.6 27 13.1 NW 13 20 7 11 1008.0 1007.5 0.0
22/02:00pm 33.6 31.9 12.6 28 12.6 NW 13 20 7 11 1008.4 1007.9 0.0
22/01:30pm 33.3 32.3 12.3 28 12.5 NNW 9 20 5 11 1008.6 1008.1 0.0
22/01:00pm 33.5 31.4 12.5 28 12.6 NNE 15 28 8 15 1008.9 1008.5 0.0
22/12:30pm 32.1 29.1 10.8 27 12.4 N 17 28 9 15 1009.3 1008.9 0.0
22/12:00pm 31.4 27.7 10.2 27 12.2 NNE 20 28 11 15 1009.7 1009.3 0.0
22/11:30am 30.8 27.2 10.7 29 11.6 NNE 20 30 11 16 1010.0 1009.6 0.0
22/11:00am 31.0 27.3 11.4 30 11.4 NNE 22 32 12 17 1010.0 1009.6 0.0
22/10:30am 29.1 24.7 11.6 33 10.2 NNE 26 35 14 19 1010.2 1009.8 0.0
22/10:00am 28.2 23.8 11.7 36 9.5 NNE 26 37 14 20 1010.5 1010.1 0.0
22/09:30am 26.9 23.4 13.3 43 8.0 NNE 24 35 13 19 1010.6 1010.2 0.0
22/09:00am 25.3 22.8 13.5 48 6.9 NE 19 26 10 14 1010.6 1010.2 0.0
22/08:30am 23.7 22.6 14.4 56 5.5 ENE 13 19 7 10 1010.9 1010.5 0.0
22/08:00am 21.7 22.6 15.1 66 3.9 ENE 4 11 2 6 1011.1 1010.7 0.0
22/07:30am 20.2 20.6 14.8 71 3.2 SSE 6 9 3 5 1011.0 1010.6 0.0
22/07:00am 19.2 19.2 14.2 73 2.9 ESE 7 7 4 4 1010.6 1010.2 0.0
22/06:30am 19.3 20.8 14.6 74 2.7 CALM 0 0 0 0 1010.4 1010.0 0.0
22/06:00am 19.7 21.2 14.7 73 2.9 CALM 0 0 0 0 1010.5 1010.1 0.0
22/05:30am 20.4 20.1 13.4 64 4.0 E 7 9 4 5 1010.3 1009.9 0.0
22/05:00am 20.4 20.0 13.1 63 4.2 E 7 9 4 5 1010.4 1010.0 0.0
22/04:30am 20.5 21.3 13.7 65 3.9 SE 2 6 1 3 1010.4 1010.0 0.0
22/04:00am 20.5 20.0 12.7 61 4.4 ENE 7 13 4 7 1010.3 1009.9 0.0
22/03:30am 20.1 19.2 12.6 62 4.2 ENE 9 15 5 8 1010.2 1009.8 0.0
22/03:00am 18.9 18.7 13.7 72 3.0 E 7 11 4 6 1010.3 1009.9 0.0
22/02:30am 18.6 18.1 13.7 73 2.8 E 9 15 5 8 1010.6 1010.2 0.0
22/02:00am 18.4 17.2 13.9 75 2.6 ESE 13 17 7 9 1010.7 1010.3 0.0
22/01:30am 18.5 18.1 14.2 76 2.5 ESE 9 13 5 7 1011.1 1010.7 0.0
22/01:00am 18.7 18.3 14.2 75 2.6 ESE 9 15 5 8 1011.2 1010.8 0.0
22/12:30am 19.0 18.6 14.1 73 2.8 SE 9 13 5 7 1011.4 1011.0 0.0
22/12:00am 19.5 18.2 13.7 69 3.3 SE 13 19 7 10 1011.7 1011.3 0.0
 
Date/Time
CDT
Temp
°C
App
Temp
°C
Dew
Point
°C
Rel
Hum
%
Delta-T
°C
Wind Press
QNH
hPa
Press
MSL
hPa
Rain since
9am
mm
Dir  Spd
km/h
Gust
km/h
Spd
kts
Gust
kts
21/11:30pm 20.0 18.5 13.0 64 4.0 SE 13 22 7 12 1011.7 1011.3 0.0
21/11:00pm 20.9 18.4 12.3 58 4.9 SE 17 22 9 12 1011.8 1011.4 0.0
21/10:30pm 22.1 18.9 11.2 50 6.1 SE 19 26 10 14 1011.7 1011.3 0.0
21/10:00pm 23.4 20.5 11.1 46 6.9 SE 17 24 9 13 1011.6 1011.2 0.0
21/09:30pm 24.7 21.7 12.0 45 7.3 SSE 19 24 10 13 1011.3 1010.9 0.0
21/09:00pm 26.3 23.4 12.4 42 8.1 SSE 19 28 10 15 1011.1 1010.7 0.0
21/08:30pm 26.6 24.5 12.3 41 8.3 SSW 15 20 8 11 1010.7 1010.3 0.0
21/08:00pm 29.8 28.0 9.3 28 11.5 S 9 13 5 7 1010.6 1010.2 0.0
21/07:30pm 30.3 27.9 8.7 26 12.0 S 11 13 6 7 1010.3 1009.9 0.0
21/07:00pm 30.5 28.5 8.8 26 12.1 SSE 9 15 5 8 1010.0 1009.6 0.0
21/06:30pm 30.6 28.5 8.3 25 12.4 SE 9 15 5 8 1010.0 1009.6 0.0
21/06:00pm 30.5 28.7 9.4 27 11.9 SSE 9 17 5 9 1010.1 1009.7 0.0
21/05:30pm 30.6 27.5 8.9 26 12.1 S 15 20 8 11 1010.4 1010.0 0.0
21/05:00pm 30.4 28.2 9.3 27 11.9 S 11 17 6 9 1010.7 1010.3 0.0
21/04:30pm 30.5 27.9 9.4 27 11.9 SW 13 17 7 9 1010.9 1010.5 0.0
21/04:00pm 30.2 29.0 9.7 28 11.6 NE 6 13 3 7 1011.3 1010.9 0.0
21/03:30pm 28.7 26.5 9.4 30 10.8 SSE 11 22 6 12 1011.6 1011.2 0.0
21/03:00pm 28.9 26.8 11.0 33 10.3 SSW 13 20 7 11 1011.8 1011.4 0.0
21/02:30pm 28.1 26.1 10.3 33 10.1 WSW 11 19 6 10 1012.1 1011.7 0.0
21/02:00pm 27.8 26.7 11.8 37 9.3 SSE 9 19 5 10 1012.3 1011.9 0.0
21/01:30pm 26.4 24.3 11.3 39 8.6 SE 13 24 7 13 1012.6 1012.2 0.0

Other Formats:

Comma delimited format used in spreadsheet applications
http://www.bom.gov.au/fwo/IDS60801/IDS60801.95654.axf

JavaScript Object Notation format (JSON) in row-major order
http://www.bom.gov.au/fwo/IDS60801/IDS60801.95654.json